Time;durP1;ratioP1;P1;durP2;ratioP2;P2;SDS_P1;SDS_P2;PMS_P1;PMS_P2;Temp;Humidity;BMP_temperature;BMP_pressure;BME280_temperature;BME280_humidity;BME280_pressure;Samples;Min_cycle;Max_cycle;Signal;HPM_P1;HPM_P2
2022/12/10 00:00:24;;;;;;;19.53;15.40;;;-0.30;1.00;;;;;;6262673;28;20313;-52
2022/12/10 00:03:27;;;;;;;18.50;14.90;;;-0.60;1.00;;;;;;6254274;28;20238;-51
2022/12/10 00:06:33;;;;;;;20.03;14.33;;;-0.60;1.00;;;;;;6261959;28;20278;-51
2022/12/10 00:09:36;;;;;;;20.63;15.53;;;-0.40;1.00;;;;;;6258792;28;20234;-51
2022/12/10 00:12:39;;;;;;;21.77;17.13;;;-0.40;1.00;;;;;;6237516;28;20723;-51
2022/12/10 00:15:42;;;;;;;20.63;15.10;;;-0.60;1.00;;;;;;6236506;28;20527;-51
2022/12/10 00:18:46;;;;;;;20.27;15.47;;;-0.80;1.00;;;;;;6236646;28;20239;-51
2022/12/10 00:21:50;;;;;;;23.33;15.97;;;-0.80;1.00;;;;;;6237544;28;20513;-51
2022/12/10 00:24:53;;;;;;;19.87;15.83;;;-0.50;1.00;;;;;;6237505;28;20388;-51
2022/12/10 00:27:56;;;;;;;18.30;15.27;;;-0.50;1.00;;;;;;6236322;28;20615;-51
2022/12/10 00:31:04;;;;;;;20.03;14.60;;;-0.60;1.00;;;;;;6241598;28;20253;-52
2022/12/10 00:34:09;;;;;;;20.43;15.77;;;-0.70;1.00;;;;;;6261325;28;20280;-51
2022/12/10 00:37:13;;;;;;;21.40;15.17;;;-0.50;1.00;;;;;;6264101;28;20249;-50
2022/12/10 00:40:16;;;;;;;21.77;15.27;;;-0.40;1.00;;;;;;6258061;28;20235;-52
2022/12/10 00:43:19;;;;;;;26.47;18.00;;;-0.80;1.00;;;;;;6258094;28;20230;-52
2022/12/10 00:46:22;;;;;;;21.60;15.87;;;-0.80;1.00;;;;;;6244785;28;20329;-53
2022/12/10 00:49:25;;;;;;;24.13;17.10;;;-0.80;1.00;;;;;;6236798;28;20322;-50
2022/12/10 00:52:29;;;;;;;25.30;17.27;;;-0.80;1.00;;;;;;6257626;28;20951;-50
2022/12/10 00:55:32;;;;;;;24.07;16.20;;;-0.70;1.00;;;;;;6261222;28;20261;-51
2022/12/10 00:58:36;;;;;;;24.90;16.23;;;-0.50;1.00;;;;;;6260617;28;20246;-50
2022/12/10 01:01:41;;;;;;;22.90;17.23;;;-0.50;1.00;;;;;;6251426;28;20242;-51
2022/12/10 01:04:44;;;;;;;23.57;15.97;;;-0.60;1.00;;;;;;6260519;28;20412;-51
2022/12/10 01:07:52;;;;;;;22.63;16.20;;;-0.70;1.00;;;;;;6259705;28;20385;-51
2022/12/10 01:10:55;;;;;;;23.10;16.43;;;-0.60;1.00;;;;;;6257421;28;20238;-51
2022/12/10 01:13:58;;;;;;;24.70;16.17;;;-0.90;1.00;;;;;;6259998;28;20234;-55
2022/12/10 01:17:03;;;;;;;23.43;16.80;;;-0.70;1.00;;;;;;6254022;28;20543;-52
2022/12/10 01:20:07;;;;;;;23.67;15.83;;;-0.80;1.00;;;;;;6246529;28;20239;-51
2022/12/10 01:23:12;;;;;;;26.73;16.67;;;-0.70;1.00;;;;;;6248787;28;20233;-50
2022/12/10 01:26:16;;;;;;;22.83;16.83;;;-0.70;1.00;;;;;;6232198;28;20604;-51
2022/12/10 01:29:19;;;;;;;22.53;16.27;;;-0.70;1.00;;;;;;6226451;28;20263;-51
2022/12/10 01:32:23;;;;;;;23.17;17.23;;;-0.80;1.00;;;;;;6226084;28;20238;-51
2022/12/10 01:35:26;;;;;;;24.60;17.77;;;-1.00;1.00;;;;;;6231305;28;20242;-51
2022/12/10 01:38:30;;;;;;;25.27;16.73;;;-0.70;1.00;;;;;;6233922;28;20242;-51
2022/12/10 01:41:37;;;;;;;23.30;15.87;;;-0.80;1.00;;;;;;6216948;28;20242;-51
2022/12/10 01:45:05;;;;;;;26.03;17.63;;;-1.00;1.00;;;;;;6210533;28;20246;-50
2022/12/10 01:48:08;;;;;;;25.10;17.57;;;-0.80;1.00;;;;;;6207573;28;20243;-51
2022/12/10 01:51:11;;;;;;;20.60;15.27;;;-1.10;1.00;;;;;;6209913;28;20254;-51
2022/12/10 01:54:20;;;;;;;22.17;16.77;;;-1.00;1.00;;;;;;6210618;28;20243;-50
2022/12/10 01:57:26;;;;;;;24.13;16.23;;;-0.80;1.00;;;;;;6215656;28;20839;-50
2022/12/10 02:00:29;;;;;;;21.80;16.27;;;-1.10;1.00;;;;;;6210306;28;20250;-51
2022/12/10 02:03:53;;;;;;;24.10;16.67;;;-1.00;1.00;;;;;;6233781;28;20260;-51
2022/12/10 02:07:01;;;;;;;23.87;17.10;;;-1.30;1.00;;;;;;6223082;28;20231;-51
2022/12/10 02:10:11;;;;;;;22.93;16.87;;;-0.90;1.00;;;;;;6228044;28;20485;-51
2022/12/10 02:13:19;;;;;;;22.67;16.30;;;-1.20;1.00;;;;;;6210170;28;20246;-52
2022/12/10 02:16:32;;;;;;;24.67;16.20;;;-1.10;1.00;;;;;;6210540;28;20238;-50
2022/12/10 02:19:52;;;;;;;22.83;16.70;;;-1.10;1.00;;;;;;6208986;28;20239;-51
2022/12/10 02:22:59;;;;;;;20.10;16.13;;;-0.90;1.00;;;;;;6210209;28;20237;-51
2022/12/10 02:26:10;;;;;;;21.00;15.73;;;-1.10;1.00;;;;;;6229991;28;20473;-51
2022/12/10 02:29:17;;;;;;;22.90;16.57;;;-1.20;1.00;;;;;;6233149;28;20731;-50
2022/12/10 02:32:32;;;;;;;22.93;16.50;;;-1.20;1.00;;;;;;6233836;28;20234;-52
2022/12/10 02:35:38;;;;;;;24.20;18.13;;;-1.20;1.00;;;;;;6222423;28;20576;-51
2022/12/10 02:38:44;;;;;;;28.23;17.30;;;-1.10;1.00;;;;;;6233022;28;20627;-49
2022/12/10 02:41:50;;;;;;;22.83;17.00;;;-1.30;1.00;;;;;;6213930;28;20741;-51
2022/12/10 02:44:56;;;;;;;24.97;17.40;;;-1.30;1.00;;;;;;6213573;28;20241;-51
2022/12/10 02:48:02;;;;;;;25.13;17.67;;;-1.10;1.00;;;;;;6233087;28;20238;-51
2022/12/10 02:51:05;;;;;;;20.10;16.57;;;-1.20;1.00;;;;;;6233204;28;20239;-50
2022/12/10 02:54:38;;;;;;;23.33;16.43;;;-1.30;1.00;;;;;;6213854;28;20238;-51
2022/12/10 02:57:48;;;;;;;24.00;16.77;;;-1.30;1.00;;;;;;6209671;28;20265;-51
2022/12/10 03:01:03;;;;;;;23.97;16.63;;;-1.30;1.00;;;;;;6213404;28;20245;-52
2022/12/10 03:04:11;;;;;;;28.07;17.80;;;-1.30;1.00;;;;;;6232581;28;20684;-51
2022/12/10 03:07:19;;;;;;;28.53;18.57;;;-1.30;1.00;;;;;;6238630;28;20660;-50
2022/12/10 03:10:29;;;;;;;24.73;17.40;;;-1.50;1.00;;;;;;6231898;28;20482;-51
2022/12/10 03:13:36;;;;;;;23.50;16.90;;;-1.40;1.00;;;;;;6218149;28;20255;-51
2022/12/10 03:16:44;;;;;;;28.13;18.30;;;-1.50;1.00;;;;;;6234982;28;20359;-50
2022/12/10 03:19:50;;;;;;;24.67;18.10;;;-1.40;1.00;;;;;;6238193;28;20432;-50
2022/12/10 03:22:54;;;;;;;27.00;18.40;;;-1.30;1.00;;;;;;6237794;28;20235;-55
2022/12/10 03:25:57;;;;;;;27.93;18.80;;;-1.30;1.00;;;;;;6223682;28;20250;-51
2022/12/10 03:29:05;;;;;;;24.47;18.10;;;-1.30;1.00;;;;;;6212971;28;20239;-51
2022/12/10 03:32:10;;;;;;;24.30;17.43;;;-1.20;1.00;;;;;;6228094;28;20481;-53
2022/12/10 03:35:15;;;;;;;22.83;16.33;;;-1.30;1.00;;;;;;6223975;28;20242;-51
2022/12/10 03:38:19;;;;;;;23.10;16.97;;;-1.20;1.00;;;;;;6237782;28;20322;-50
2022/12/10 03:41:22;;;;;;;25.53;18.20;;;-1.30;1.00;;;;;;6219684;28;20484;-50
2022/12/10 03:44:29;;;;;;;23.77;17.40;;;-1.40;1.00;;;;;;6237497;28;20759;-51
2022/12/10 03:47:34;;;;;;;28.90;18.43;;;-1.30;1.00;;;;;;6237705;28;20425;-51
2022/12/10 03:50:36;;;;;;;28.30;17.33;;;-1.30;1.00;;;;;;6232813;28;20239;-50
2022/12/10 03:53:39;;;;;;;27.63;17.53;;;-1.20;1.00;;;;;;6222389;28;20258;-50
2022/12/10 03:56:42;;;;;;;26.53;17.67;;;-1.40;1.00;;;;;;6217907;28;20246;-52
2022/12/10 03:59:46;;;;;;;25.30;17.37;;;-1.30;1.00;;;;;;6214376;28;20497;-50
2022/12/10 04:02:50;;;;;;;28.23;18.17;;;-1.40;1.00;;;;;;6233199;28;20231;-51
2022/12/10 04:05:53;;;;;;;27.60;18.63;;;-1.30;1.00;;;;;;6238847;28;20234;-51
2022/12/10 04:08:56;;;;;;;27.80;18.03;;;-1.30;1.00;;;;;;6230113;28;20238;-52
2022/12/10 04:12:01;;;;;;;25.00;18.03;;;-1.20;1.00;;;;;;6238033;28;20230;-51
2022/12/10 04:18:26;;;;;;;25.80;17.83;;;-1.20;1.00;;;;;;6235378;28;20230;-51
2022/12/10 04:28:11;;;;;;;24.43;17.97;;;-1.10;1.00;;;;;;6235780;28;20747;-50
2022/12/10 04:31:14;;;;;;;27.23;18.60;;;-1.30;1.00;;;;;;6232900;28;20237;-50
2022/12/10 04:34:18;;;;;;;27.27;18.17;;;-1.10;1.00;;;;;;6212516;28;20250;-50
2022/12/10 04:37:22;;;;;;;25.17;17.50;;;-0.90;1.00;;;;;;6234871;28;20628;-51
2022/12/10 04:40:25;;;;;;;26.83;18.97;;;-1.00;1.00;;;;;;6233478;28;20433;-50
2022/12/10 04:43:28;;;;;;;27.37;18.83;;;-1.10;1.00;;;;;;6252508;28;20250;-51
2022/12/10 04:46:31;;;;;;;26.93;18.33;;;-0.90;1.00;;;;;;6259559;28;20260;-51
2022/12/10 04:49:36;;;;;;;29.87;19.60;;;-1.00;1.00;;;;;;6255593;28;20245;-51
2022/12/10 04:52:39;;;;;;;27.67;19.37;;;-1.20;1.00;;;;;;6260288;28;20231;-50
2022/12/10 04:55:42;;;;;;;31.80;18.93;;;-0.80;1.00;;;;;;6273308;28;20234;-51
2022/12/10 04:58:45;;;;;;;28.50;20.23;;;-0.80;1.00;;;;;;6268978;28;20241;-52
2022/12/10 05:01:48;;;;;;;26.33;17.53;;;-0.90;1.00;;;;;;6269000;28;20399;-48
2022/12/10 05:04:52;;;;;;;26.50;18.53;;;-0.80;1.00;;;;;;6266531;28;20230;-51
2022/12/10 05:07:55;;;;;;;23.93;16.40;;;-0.80;1.00;;;;;;6260632;28;20404;-51
2022/12/10 05:11:02;;;;;;;27.57;18.10;;;-1.00;1.00;;;;;;6259379;28;20265;-51
2022/12/10 05:14:06;;;;;;;24.23;17.20;;;-0.70;1.00;;;;;;6254572;28;20234;-50
2022/12/10 05:17:08;;;;;;;25.43;17.57;;;-0.80;1.00;;;;;;6233088;28;20245;-50
2022/12/10 05:20:13;;;;;;;22.37;17.50;;;-0.90;1.00;;;;;;6234800;28;20242;-51
2022/12/10 05:23:30;;;;;;;25.87;18.40;;;-0.60;1.00;;;;;;6229292;28;20231;-50
2022/12/10 05:26:33;;;;;;;26.33;17.83;;;-0.80;1.00;;;;;;6232645;28;20250;-51
2022/12/10 05:29:36;;;;;;;26.30;18.33;;;-0.80;1.00;;;;;;6232967;28;20234;-49
2022/12/10 05:32:39;;;;;;;23.60;18.30;;;-0.60;1.00;;;;;;6233651;28;20234;-50
2022/12/10 05:35:43;;;;;;;24.23;17.67;;;-0.60;1.00;;;;;;6228098;28;20249;-51
2022/12/10 05:38:46;;;;;;;21.47;16.03;;;-0.50;1.00;;;;;;6233695;28;20254;-52
2022/12/10 05:41:49;;;;;;;25.03;18.43;;;-0.50;1.00;;;;;;6234597;28;20237;-51
2022/12/10 05:44:52;;;;;;;25.53;16.57;;;-0.60;1.00;;;;;;6226412;28;20242;-51
2022/12/10 05:47:55;;;;;;;22.40;18.23;;;-0.80;1.00;;;;;;6233777;28;20245;-51
2022/12/10 05:51:03;;;;;;;26.00;18.07;;;-0.70;1.00;;;;;;6233860;28;20231;-51
2022/12/10 05:54:08;;;;;;;22.57;17.20;;;-0.50;1.00;;;;;;6232555;28;20227;-51
2022/12/10 05:57:11;;;;;;;22.00;15.97;;;-0.40;1.00;;;;;;6229964;28;20271;-52
2022/12/10 06:00:15;;;;;;;22.47;16.90;;;-0.40;1.00;;;;;;6226496;28;20231;-51
2022/12/10 06:03:18;;;;;;;24.93;16.63;;;-0.40;1.00;;;;;;6233095;28;20284;-52
2022/12/10 06:06:24;;;;;;;20.53;16.43;;;-0.50;1.00;;;;;;6233817;28;20248;-51
2022/12/10 06:09:27;;;;;;;22.07;16.43;;;-0.30;1.00;;;;;;6231114;28;20249;-51
2022/12/10 06:12:30;;;;;;;20.13;16.20;;;-0.40;1.00;;;;;;6230310;28;20357;-51
2022/12/10 06:15:34;;;;;;;19.13;15.87;;;-0.40;1.00;;;;;;6233611;28;20241;-52
2022/12/10 06:18:38;;;;;;;23.40;17.63;;;-0.40;1.00;;;;;;6231959;28;20739;-53
2022/12/10 06:21:42;;;;;;;21.97;16.00;;;-0.50;1.00;;;;;;6233122;28;20230;-51
2022/12/10 06:24:45;;;;;;;20.40;16.87;;;-0.40;1.00;;;;;;6250226;28;20241;-49
2022/12/10 06:27:48;;;;;;;20.00;16.27;;;-0.40;1.00;;;;;;6256450;28;20469;-50
2022/12/10 06:30:51;;;;;;;17.87;15.57;;;-0.40;1.00;;;;;;6256610;28;20241;-51
2022/12/10 06:33:54;;;;;;;19.30;16.87;;;-0.20;1.00;;;;;;6258570;28;20265;-51
2022/12/10 06:36:58;;;;;;;19.50;15.73;;;-0.50;1.00;;;;;;6255718;28;20711;-51
2022/12/10 06:40:01;;;;;;;22.50;15.57;;;-0.20;1.00;;;;;;6253854;28;20245;-51
2022/12/10 06:43:04;;;;;;;19.67;16.27;;;-0.20;1.00;;;;;;6257210;28;20237;-52
2022/12/10 06:46:08;;;;;;;17.43;15.53;;;-0.50;1.00;;;;;;6256288;28;20248;-51
2022/12/10 06:49:11;;;;;;;16.27;14.50;;;-0.40;1.00;;;;;;6254885;28;20240;-51
2022/12/10 06:52:16;;;;;;;20.13;15.40;;;-0.40;1.00;;;;;;6249730;28;20487;-51
2022/12/10 06:55:19;;;;;;;18.13;15.60;;;-0.30;1.00;;;;;;6256164;28;20695;-51
2022/12/10 06:58:22;;;;;;;17.87;15.47;;;-0.10;1.00;;;;;;6251117;28;20248;-51
2022/12/10 07:01:26;;;;;;;16.60;14.77;;;-0.30;1.00;;;;;;6256927;28;20592;-52
2022/12/10 07:04:29;;;;;;;17.53;15.20;;;-0.20;1.00;;;;;;6253854;28;20252;-51
2022/12/10 07:07:34;;;;;;;16.63;14.67;;;-0.30;1.00;;;;;;6255142;28;20245;-52
2022/12/10 07:10:38;;;;;;;16.60;14.77;;;-0.20;1.00;;;;;;6256913;28;20420;-51
2022/12/10 07:13:41;;;;;;;15.63;13.93;;;-0.50;1.00;;;;;;6256010;28;20237;-52
2022/12/10 07:16:44;;;;;;;17.17;14.57;;;-0.30;1.00;;;;;;6259190;28;20622;-52
2022/12/10 07:19:47;;;;;;;16.13;14.40;;;-0.10;1.00;;;;;;6253044;28;20237;-52
2022/12/10 07:22:51;;;;;;;17.57;14.47;;;-0.30;1.00;;;;;;6257447;28;20230;-53
2022/12/10 07:25:55;;;;;;;16.37;14.33;;;-0.10;1.00;;;;;;6258214;28;20241;-52
2022/12/10 07:29:00;;;;;;;18.73;14.90;;;-0.20;1.00;;;;;;6232932;28;20237;-51
2022/12/10 07:32:03;;;;;;;16.10;14.43;;;-0.30;1.00;;;;;;6231776;28;20262;-52
2022/12/10 07:35:06;;;;;;;17.83;14.70;;;-0.30;1.00;;;;;;6228796;28;20273;-51
2022/12/10 07:38:11;;;;;;;16.17;13.13;;;-0.10;1.00;;;;;;6226368;28;20261;-52
2022/12/10 07:41:14;;;;;;;16.23;14.30;;;-0.30;1.00;;;;;;6231947;28;20573;-52
2022/12/10 07:44:19;;;;;;;15.87;14.17;;;-0.20;1.00;;;;;;6232375;28;20719;-52
2022/12/10 07:47:22;;;;;;;17.23;14.03;;;-0.30;1.00;;;;;;6227942;28;20246;-53
2022/12/10 07:50:25;;;;;;;16.97;14.30;;;-0.40;1.00;;;;;;6233860;28;20227;-51
2022/12/10 07:53:29;;;;;;;15.90;14.30;;;-0.10;1.00;;;;;;6235602;28;20254;-52
2022/12/10 07:56:32;;;;;;;15.90;14.30;;;-0.10;1.00;;;;;;6230023;28;20234;-51
2022/12/10 07:59:35;;;;;;;16.50;14.20;;;-0.10;1.00;;;;;;6237780;28;20778;-51
2022/12/10 08:02:38;;;;;;;16.60;13.77;;;-0.10;1.00;;;;;;6235282;28;20239;-52
2022/12/10 08:05:41;;;;;;;16.20;14.43;;;-0.20;1.00;;;;;;6235850;28;20242;-53
2022/12/10 08:08:47;;;;;;;16.67;14.17;;;-0.20;1.00;;;;;;6242060;28;20245;-51
2022/12/10 08:11:49;;;;;;;15.90;13.93;;;-0.30;1.00;;;;;;6234721;28;20641;-51
2022/12/10 08:14:52;;;;;;;18.17;15.37;;;-0.10;1.00;;;;;;6235341;28;20241;-51
2022/12/10 08:17:55;;;;;;;18.83;14.33;;;-0.10;1.00;;;;;;6236112;28;20242;-51
2022/12/10 08:20:58;;;;;;;15.10;13.47;;;-0.20;1.00;;;;;;6233226;28;20611;-52
2022/12/10 08:24:03;;;;;;;16.83;15.03;;;-0.20;1.00;;;;;;6235148;28;20641;-52
2022/12/10 08:27:06;;;;;;;16.67;13.73;;;-0.20;1.00;;;;;;6231091;28;20715;-51
2022/12/10 08:30:10;;;;;;;15.70;13.57;;;0.10;1.00;;;;;;6219726;28;20242;-52
2022/12/10 08:33:13;;;;;;;15.33;13.87;;;0.00;1.00;;;;;;6239135;28;20269;-52
2022/12/10 08:36:18;;;;;;;14.63;13.13;;;0.10;1.00;;;;;;6258089;28;20237;-53
2022/12/10 08:39:22;;;;;;;14.83;13.37;;;0.00;1.00;;;;;;6259808;28;20233;-51
2022/12/10 08:42:25;;;;;;;15.83;14.27;;;-0.10;1.00;;;;;;6253665;28;20784;-51
2022/12/10 08:45:28;;;;;;;16.43;14.37;;;-0.10;1.00;;;;;;6259266;28;20237;-52
2022/12/10 08:48:31;;;;;;;15.90;14.30;;;0.00;1.00;;;;;;6259133;28;20257;-51
2022/12/10 08:51:34;;;;;;;16.23;14.63;;;0.00;1.00;;;;;;6254267;28;20234;-52
2022/12/10 08:54:38;;;;;;;16.27;14.10;;;-0.10;1.00;;;;;;6259923;28;20730;-52
2022/12/10 08:57:41;;;;;;;15.03;13.40;;;-0.10;1.00;;;;;;6258383;28;20236;-51
2022/12/10 09:00:44;;;;;;;17.53;15.73;;;0.00;1.00;;;;;;6258492;28;20238;-52
2022/12/10 09:03:48;;;;;;;16.47;13.63;;;0.10;1.00;;;;;;6259553;28;20349;-51
2022/12/10 09:06:52;;;;;;;16.90;15.20;;;0.10;1.00;;;;;;6254064;28;20244;-51
2022/12/10 09:09:57;;;;;;;18.13;14.77;;;0.00;1.00;;;;;;6259236;28;20234;-51
2022/12/10 09:13:00;;;;;;;16.30;14.60;;;0.10;1.00;;;;;;6259166;28;20230;-52
2022/12/10 09:16:06;;;;;;;17.13;15.30;;;0.20;1.00;;;;;;6253627;28;20234;-52
2022/12/10 09:19:09;;;;;;;16.40;14.70;;;0.20;1.00;;;;;;6258576;28;20248;-51
2022/12/10 09:22:20;;;;;;;17.03;15.33;;;0.10;1.00;;;;;;6254118;28;20234;-50
2022/12/10 09:25:24;;;;;;;18.07;16.17;;;0.20;1.00;;;;;;6257565;28;20254;-51
2022/12/10 09:28:27;;;;;;;17.50;15.73;;;0.10;1.00;;;;;;6250153;28;20605;-52
2022/12/10 09:31:30;;;;;;;18.80;16.87;;;0.20;1.00;;;;;;6250609;28;20238;-51
2022/12/10 09:34:33;;;;;;;18.10;15.60;;;0.30;1.00;;;;;;6252573;28;20239;-52
2022/12/10 09:37:36;;;;;;;17.37;15.57;;;0.40;1.00;;;;;;6258265;28;20253;-52
2022/12/10 09:40:46;;;;;;;17.90;15.43;;;0.30;1.00;;;;;;6258473;28;20237;-50
2022/12/10 09:43:56;;;;;;;17.67;15.73;;;0.30;1.00;;;;;;6256529;28;20245;-52
2022/12/10 09:47:01;;;;;;;16.70;14.97;;;0.10;1.00;;;;;;6258204;28;20238;-51
2022/12/10 09:50:14;;;;;;;18.27;16.27;;;0.40;1.00;;;;;;6256812;28;20242;-51
2022/12/10 09:53:20;;;;;;;20.93;16.43;;;0.30;1.00;;;;;;6253978;28;20408;-51
2022/12/10 09:56:27;;;;;;;17.50;15.67;;;0.10;1.00;;;;;;6258666;28;20613;-51
2022/12/10 09:59:33;;;;;;;17.93;16.13;;;0.20;1.00;;;;;;6252811;28;20752;-50
2022/12/10 10:02:36;;;;;;;21.97;17.33;;;0.30;1.00;;;;;;6256624;28;20244;-54
2022/12/10 10:05:42;;;;;;;20.03;16.27;;;0.30;1.00;;;;;;6256819;28;20402;-51
2022/12/10 10:08:47;;;;;;;18.93;16.70;;;0.50;1.00;;;;;;6256748;28;20241;-51
2022/12/10 10:11:51;;;;;;;17.23;15.43;;;0.50;1.00;;;;;;6257542;28;20230;-52
2022/12/10 10:14:54;;;;;;;17.87;15.87;;;0.50;1.00;;;;;;6258435;28;20228;-53
2022/12/10 10:18:02;;;;;;;19.13;16.97;;;0.40;1.00;;;;;;6256199;28;20244;-52
2022/12/10 10:21:08;;;;;;;18.33;16.43;;;0.30;1.00;;;;;;6258197;28;20867;-52
2022/12/10 10:24:16;;;;;;;19.83;16.90;;;0.30;1.00;;;;;;6257103;28;20241;-52
2022/12/10 10:27:26;;;;;;;17.27;15.43;;;0.40;1.00;;;;;;6258545;28;20745;-52
2022/12/10 10:30:29;;;;;;;16.40;14.63;;;0.60;1.00;;;;;;6258186;28;20238;-52
2022/12/10 10:33:37;;;;;;;19.47;15.67;;;0.40;1.00;;;;;;6248525;28;20238;-51
2022/12/10 10:36:40;;;;;;;17.30;15.50;;;0.30;1.00;;;;;;6242553;28;20230;-50
2022/12/10 10:39:48;;;;;;;18.70;15.63;;;0.40;1.00;;;;;;6258697;28;20234;-51
2022/12/10 10:42:55;;;;;;;17.60;15.80;;;0.40;1.00;;;;;;6254722;28;20253;-51
2022/12/10 10:46:01;;;;;;;19.63;16.70;;;0.60;1.00;;;;;;6259062;28;20453;-51
2022/12/10 10:49:22;;;;;;;18.17;16.27;;;0.50;1.00;;;;;;6255314;28;20230;-52
2022/12/10 10:52:29;;;;;;;17.83;16.10;;;0.60;1.00;;;;;;6243001;28;20222;-53
2022/12/10 10:55:35;;;;;;;19.80;15.73;;;0.70;1.00;;;;;;6229968;28;20620;-52
2022/12/10 10:58:49;;;;;;;18.73;16.83;;;0.70;1.00;;;;;;6233242;28;20321;-52
2022/12/10 11:01:53;;;;;;;18.33;16.40;;;0.60;1.00;;;;;;6232575;28;20242;-51
2022/12/10 11:04:58;;;;;;;19.27;16.53;;;0.60;1.00;;;;;;6227261;28;20242;-52
2022/12/10 11:08:04;;;;;;;19.03;16.97;;;0.80;1.00;;;;;;6237061;28;20238;-53
2022/12/10 11:11:12;;;;;;;20.63;16.50;;;0.90;1.00;;;;;;6235415;28;20226;-52
2022/12/10 11:14:25;;;;;;;19.37;17.17;;;0.80;1.00;;;;;;6232504;28;20245;-51
2022/12/10 11:17:28;;;;;;;18.47;16.50;;;0.80;1.00;;;;;;6227194;28;20471;-52
2022/12/10 11:20:34;;;;;;;18.23;16.40;;;0.90;1.00;;;;;;6239774;28;20488;-53
2022/12/10 11:23:47;;;;;;;23.43;17.67;;;0.80;1.00;;;;;;6254509;28;20809;-52
2022/12/10 11:27:00;;;;;;;19.10;17.07;;;1.10;1.00;;;;;;6262163;28;20233;-52
2022/12/10 11:30:06;;;;;;;17.60;15.87;;;0.80;1.00;;;;;;6259427;28;20765;-52
2022/12/10 11:33:25;;;;;;;20.00;17.53;;;0.80;1.00;;;;;;6260549;28;20265;-52
2022/12/10 11:36:37;;;;;;;19.73;16.87;;;1.00;1.00;;;;;;6267704;28;20760;-52
2022/12/10 11:40:01;;;;;;;21.17;17.80;;;0.90;1.00;;;;;;6270657;28;20238;-52
2022/12/10 11:43:15;;;;;;;20.00;16.90;;;1.00;1.00;;;;;;6265105;28;20230;-51
2022/12/10 11:46:43;;;;;;;18.87;16.40;;;1.00;1.00;;;;;;6261218;28;20339;-52
2022/12/10 11:50:02;;;;;;;22.03;18.03;;;0.80;1.00;;;;;;6235212;28;20489;-51
2022/12/10 11:53:43;;;;;;;18.73;16.43;;;0.90;1.00;;;;;;6236457;28;20231;-51
2022/12/10 11:56:53;;;;;;;18.70;16.80;;;0.80;1.00;;;;;;6216961;28;20606;-53
2022/12/10 12:00:00;;;;;;;18.73;15.50;;;0.90;1.00;;;;;;6234472;28;20231;-52
2022/12/10 12:03:39;;;;;;;18.57;16.17;;;0.80;1.00;;;;;;6236676;28;20707;-52
2022/12/10 12:07:08;;;;;;;17.13;15.27;;;0.80;1.00;;;;;;6238668;28;20313;-52
2022/12/10 12:10:37;;;;;;;17.90;16.00;;;1.00;1.00;;;;;;6238704;28;20473;-52
2022/12/10 12:14:01;;;;;;;19.00;16.53;;;0.90;1.00;;;;;;6256657;28;20229;-51
2022/12/10 12:17:10;;;;;;;17.57;15.63;;;0.60;1.00;;;;;;6255375;28;20234;-52
2022/12/10 12:20:20;;;;;;;18.27;16.37;;;0.60;1.00;;;;;;6243051;28;20226;-51
2022/12/10 12:23:27;;;;;;;19.83;16.17;;;0.50;1.00;;;;;;6261574;28;20393;-53
2022/12/10 12:26:33;;;;;;;17.80;15.90;;;0.70;1.00;;;;;;6253883;28;20565;-52
2022/12/10 12:29:42;;;;;;;18.37;15.73;;;0.80;1.00;;;;;;6257735;28;20234;-51
2022/12/10 12:32:57;;;;;;;17.37;15.27;;;0.80;1.00;;;;;;6264348;28;20747;-52
2022/12/10 12:36:09;;;;;;;18.07;15.43;;;0.60;1.00;;;;;;6261312;28;20226;-52
2022/12/10 12:39:20;;;;;;;17.23;15.43;;;0.60;1.00;;;;;;6264998;28;20755;-51
2022/12/10 12:42:28;;;;;;;17.80;16.00;;;0.50;1.00;;;;;;6261477;28;20287;-52
2022/12/10 12:45:37;;;;;;;18.43;16.53;;;0.70;1.00;;;;;;6260463;28;20238;-53
2022/12/10 12:48:47;;;;;;;18.10;16.00;;;0.70;1.00;;;;;;6262287;28;20242;-52
2022/12/10 12:51:55;;;;;;;18.30;16.30;;;0.60;1.00;;;;;;6263006;28;20683;-53
2022/12/10 12:55:01;;;;;;;19.47;17.03;;;0.60;1.00;;;;;;6262898;28;20261;-52
2022/12/10 12:58:16;;;;;;;17.07;15.23;;;0.60;1.00;;;;;;6267386;28;20245;-52
2022/12/10 13:01:26;;;;;;;19.37;16.30;;;0.40;1.00;;;;;;6275843;28;20229;-52
2022/12/10 13:04:30;;;;;;;18.53;16.07;;;0.30;1.00;;;;;;6264769;28;20233;-52
2022/12/10 13:07:36;;;;;;;18.63;15.67;;;0.60;1.00;;;;;;6267091;28;20432;-52
2022/12/10 13:10:45;;;;;;;18.73;16.83;;;0.50;1.00;;;;;;6261356;28;20253;-52
2022/12/10 13:14:19;;;;;;;18.87;16.50;;;0.40;1.00;;;;;;6269367;28;20773;-51
2022/12/10 13:17:32;;;;;;;18.63;16.33;;;0.40;1.00;;;;;;6229770;28;20353;-52
2022/12/10 13:20:42;;;;;;;19.90;16.90;;;0.50;1.00;;;;;;6225496;28;20242;-50
2022/12/10 13:23:52;;;;;;;18.83;15.73;;;0.70;1.00;;;;;;6233541;28;20236;-52
2022/12/10 13:27:15;;;;;;;16.80;15.03;;;0.60;1.00;;;;;;6221630;28;20238;-52
2022/12/10 13:30:37;;;;;;;17.80;16.00;;;0.60;1.00;;;;;;6232492;28;20234;-51
2022/12/10 13:33:49;;;;;;;18.00;16.20;;;0.50;1.00;;;;;;6227238;28;20486;-51
2022/12/10 13:37:16;;;;;;;19.00;16.20;;;0.60;1.00;;;;;;6234085;28;20234;-51
2022/12/10 13:47:27;;;;;;;20.50;17.80;;;0.50;1.00;;;;;;6232581;28;20236;-52
2022/12/10 13:50:37;;;;;;;24.30;18.80;;;0.60;1.00;;;;;;6255748;28;20238;-53
2022/12/10 13:53:48;;;;;;;20.77;17.77;;;0.50;1.00;;;;;;6257338;28;20234;-51
2022/12/10 13:57:01;;;;;;;19.17;17.10;;;0.50;1.00;;;;;;6258189;28;20241;-53
2022/12/10 14:00:14;;;;;;;24.47;18.33;;;0.50;1.00;;;;;;6255975;28;20635;-50
2022/12/10 14:03:48;;;;;;;24.60;18.13;;;0.40;1.00;;;;;;6254323;28;20235;-54
2022/12/10 14:06:53;;;;;;;24.77;18.47;;;0.60;1.00;;;;;;6259974;28;20246;-52
2022/12/10 14:09:58;;;;;;;21.73;18.17;;;0.40;1.00;;;;;;6271534;28;20584;-51
2022/12/10 14:13:04;;;;;;;21.50;18.43;;;0.30;1.00;;;;;;6266205;28;20252;-52
2022/12/10 14:16:12;;;;;;;24.93;18.80;;;0.50;1.00;;;;;;6265163;28;20714;-52
2022/12/10 14:19:17;;;;;;;19.97;17.57;;;0.40;1.00;;;;;;6264494;28;20241;-52
2022/12/10 14:22:25;;;;;;;22.70;18.27;;;0.50;1.00;;;;;;6262724;28;20702;-52
2022/12/10 14:25:28;;;;;;;22.90;18.83;;;0.40;1.00;;;;;;6257177;28;20242;-52
2022/12/10 14:28:34;;;;;;;24.83;19.03;;;0.40;1.00;;;;;;6265828;28;20249;-51
2022/12/10 14:31:43;;;;;;;21.57;17.27;;;0.50;1.00;;;;;;6266668;28;20744;-55
2022/12/10 14:34:53;;;;;;;24.37;18.10;;;0.40;1.00;;;;;;6259707;28;20236;-51
2022/12/10 14:37:58;;;;;;;25.83;18.97;;;0.30;1.00;;;;;;6266041;28;20230;-52
2022/12/10 14:41:02;;;;;;;30.03;18.60;;;0.50;1.00;;;;;;6248070;28;20244;-50
2022/12/10 14:44:07;;;;;;;24.63;18.43;;;0.50;1.00;;;;;;6263388;28;20233;-51
2022/12/10 14:47:15;;;;;;;26.57;18.77;;;0.30;1.00;;;;;;6271511;28;20229;-52
2022/12/10 14:50:18;;;;;;;26.63;18.87;;;0.30;1.00;;;;;;6272715;28;20301;-51
2022/12/10 14:53:25;;;;;;;26.07;17.80;;;0.10;1.00;;;;;;6270009;28;20310;-51
2022/12/10 14:56:34;;;;;;;25.50;17.77;;;0.10;1.00;;;;;;6273515;28;20233;-51
2022/12/10 14:59:44;;;;;;;27.47;17.73;;;0.20;1.00;;;;;;6268844;28;20260;-51
2022/12/10 15:02:49;;;;;;;27.50;18.23;;;0.30;1.00;;;;;;6237685;28;20226;-52
2022/12/10 15:05:57;;;;;;;27.67;18.30;;;0.10;1.00;;;;;;6237940;28;20337;-52
2022/12/10 15:09:00;;;;;;;25.13;17.73;;;0.30;1.00;;;;;;6236810;28;20781;-51
2022/12/10 15:12:03;;;;;;;26.17;17.40;;;0.20;1.00;;;;;;6239745;28;20237;-52
2022/12/10 15:15:15;;;;;;;27.60;18.17;;;0.30;1.00;;;;;;6237041;28;20241;-52
2022/12/10 15:18:21;;;;;;;29.00;18.83;;;0.30;1.00;;;;;;6233816;28;20242;-52
2022/12/10 15:21:25;;;;;;;28.03;18.43;;;0.20;1.00;;;;;;6235558;28;20246;-52
2022/12/10 15:24:36;;;;;;;30.73;18.10;;;0.40;1.00;;;;;;6238102;28;20244;-52
2022/12/10 15:27:39;;;;;;;27.43;18.07;;;0.10;1.00;;;;;;6238998;28;20257;-51
2022/12/10 15:30:47;;;;;;;32.27;18.43;;;0.20;1.00;;;;;;6234690;28;20754;-52
2022/12/10 15:33:52;;;;;;;33.50;18.07;;;0.10;1.00;;;;;;6234622;28;21174;-51
2022/12/10 15:36:58;;;;;;;30.37;18.77;;;0.10;1.00;;;;;;6236937;28;20230;-52
2022/12/10 15:40:03;;;;;;;32.07;18.63;;;0.30;1.00;;;;;;6230132;28;20242;-52
2022/12/10 15:43:23;;;;;;;34.50;19.50;;;0.20;1.00;;;;;;6236666;28;20235;-51
2022/12/10 15:46:28;;;;;;;38.53;19.17;;;0.30;1.00;;;;;;6259607;28;20322;-51
2022/12/10 15:49:31;;;;;;;31.27;18.17;;;0.10;1.00;;;;;;6259589;28;20666;-51
2022/12/10 15:52:34;;;;;;;34.60;18.90;;;0.20;1.00;;;;;;6262324;28;20249;-51
2022/12/10 15:55:37;;;;;;;38.17;19.63;;;0.30;1.00;;;;;;6257258;28;20246;-54
2022/12/10 15:58:41;;;;;;;31.30;18.67;;;0.40;1.00;;;;;;6262231;28;20268;-52
2022/12/10 16:01:46;;;;;;;33.63;19.33;;;0.10;1.00;;;;;;6259477;28;20226;-50
2022/12/10 16:04:49;;;;;;;39.13;21.07;;;0.10;1.00;;;;;;6259299;28;20369;-52
2022/12/10 16:07:54;;;;;;;33.63;19.40;;;0.10;1.00;;;;;;6260119;28;20234;-53
2022/12/10 16:11:01;;;;;;;36.67;20.13;;;0.10;1.00;;;;;;6255012;28;20651;-52
2022/12/10 16:14:06;;;;;;;42.07;20.47;;;0.20;1.00;;;;;;6261730;28;20833;-52
2022/12/10 16:17:12;;;;;;;36.83;20.90;;;0.40;1.00;;;;;;6259459;28;20230;-52
2022/12/10 16:20:21;;;;;;;37.13;20.63;;;0.10;1.00;;;;;;6260858;28;20234;-55